Time;durP1;ratioP1;P1;durP2;ratioP2;P2;SDS_P1;SDS_P2;PMS_P1;PMS_P2;Temp;Humidity;BMP_temperature;BMP_pressure;BME280_temperature;BME280_humidity;BME280_pressure;Samples;Min_cycle;Max_cycle;Signal;HPM_P1;HPM_P2
2022/02/22 00:01:23;;;;;;;29.42;3.78;;;;;;;;;;4973381;28;20046;-70
2022/02/22 00:03:50;;;;;;;31.05;4.30;;;;;;;;;;4978928;28;20062;-69
2022/02/22 00:06:16;;;;;;;39.33;4.60;;;;;;;;;;4970368;28;20042;-67
2022/02/22 00:08:42;;;;;;;32.17;4.05;;;;;;;;;;4972645;28;20054;-70
2022/02/22 00:11:09;;;;;;;31.60;4.55;;;;;;;;;;4973287;28;20050;-69
2022/02/22 00:13:35;;;;;;;26.48;4.13;;;;;;;;;;4967384;28;20049;-67
2022/02/22 00:16:02;;;;;;;28.92;4.28;;;;;;;;;;4963474;28;20409;-69
2022/02/22 00:18:28;;;;;;;22.60;3.47;;;;;;;;;;4964557;28;20316;-71
2022/02/22 00:20:55;;;;;;;31.42;4.35;;;;;;;;;;4982397;28;20050;-69
2022/02/22 00:23:21;;;;;;;29.95;3.70;;;;;;;;;;4975902;28;20061;-69
2022/02/22 00:25:47;;;;;;;34.58;4.15;;;;;;;;;;4976277;28;20050;-70
2022/02/22 00:28:14;;;;;;;31.42;4.28;;;;;;;;;;4981059;28;20451;-69
2022/02/22 00:30:40;;;;;;;27.98;4.25;;;;;;;;;;4974890;28;20042;-66
2022/02/22 00:33:06;;;;;;;26.52;4.18;;;;;;;;;;4980840;28;20404;-70
2022/02/22 00:35:33;;;;;;;32.30;4.40;;;;;;;;;;4978317;28;20497;-67
2022/02/22 00:38:00;;;;;;;29.63;4.07;;;;;;;;;;4982160;28;20492;-70
2022/02/22 00:40:26;;;;;;;30.42;4.55;;;;;;;;;;4970318;28;20047;-69
2022/02/22 00:42:53;;;;;;;30.92;4.00;;;;;;;;;;4979884;28;20413;-69
2022/02/22 00:45:19;;;;;;;30.73;3.97;;;;;;;;;;4981454;28;20053;-69
2022/02/22 00:47:45;;;;;;;29.83;3.70;;;;;;;;;;4974366;28;20062;-69
2022/02/22 00:50:12;;;;;;;28.58;4.40;;;;;;;;;;4982429;28;20046;-69
2022/02/22 00:52:38;;;;;;;27.92;3.63;;;;;;;;;;4973110;28;20089;-70
2022/02/22 00:55:05;;;;;;;32.33;3.95;;;;;;;;;;4973340;28;20050;-70
2022/02/22 00:57:31;;;;;;;25.20;3.58;;;;;;;;;;4980660;28;20247;-70
2022/02/22 00:59:57;;;;;;;27.13;4.03;;;;;;;;;;4975618;28;20046;-69
2022/02/22 01:02:23;;;;;;;26.35;3.42;;;;;;;;;;4985249;28;20054;-70
2022/02/22 01:04:50;;;;;;;24.75;3.45;;;;;;;;;;4976803;28;20049;-69
2022/02/22 01:07:17;;;;;;;31.25;4.30;;;;;;;;;;4984827;28;20528;-70
2022/02/22 01:09:44;;;;;;;28.83;4.45;;;;;;;;;;4965512;28;20046;-69
2022/02/22 01:12:11;;;;;;;30.65;4.38;;;;;;;;;;4969484;28;20061;-69
2022/02/22 01:14:37;;;;;;;43.03;5.38;;;;;;;;;;4973792;28;20051;-70
2022/02/22 01:17:03;;;;;;;28.33;4.53;;;;;;;;;;4964923;28;20051;-69
2022/02/22 01:19:30;;;;;;;28.67;4.13;;;;;;;;;;4970588;28;20416;-69
2022/02/22 01:21:59;;;;;;;25.80;3.85;;;;;;;;;;4965173;28;20055;-69
2022/02/22 01:24:25;;;;;;;21.83;3.20;;;;;;;;;;4968488;28;20046;-70
2022/02/22 01:26:52;;;;;;;26.58;3.80;;;;;;;;;;4967046;28;20050;-69
2022/02/22 01:29:19;;;;;;;31.35;4.00;;;;;;;;;;4969395;28;20714;-69
2022/02/22 01:31:45;;;;;;;30.60;3.97;;;;;;;;;;4971377;28;20056;-70
2022/02/22 01:34:11;;;;;;;28.85;4.78;;;;;;;;;;4962971;28;20053;-70
2022/02/22 01:36:38;;;;;;;21.48;3.42;;;;;;;;;;4968977;28;20046;-69
2022/02/22 01:39:04;;;;;;;31.63;4.55;;;;;;;;;;4954920;28;20051;-69
2022/02/22 01:41:32;;;;;;;26.98;3.90;;;;;;;;;;4975832;28;20050;-70
2022/02/22 01:43:59;;;;;;;31.23;4.85;;;;;;;;;;4971590;28;20497;-70
2022/02/22 01:46:25;;;;;;;29.80;4.63;;;;;;;;;;4974731;28;20050;-70
2022/02/22 01:48:54;;;;;;;30.63;3.80;;;;;;;;;;4966649;28;20054;-70
2022/02/22 01:51:21;;;;;;;32.85;3.70;;;;;;;;;;4970980;28;20047;-70
2022/02/22 01:53:47;;;;;;;22.77;3.83;;;;;;;;;;4969326;28;20427;-70
2022/02/22 01:56:15;;;;;;;28.63;3.75;;;;;;;;;;4975516;28;20056;-70
2022/02/22 01:58:42;;;;;;;22.63;3.47;;;;;;;;;;4982549;28;20054;-71
2022/02/22 02:01:10;;;;;;;29.33;3.72;;;;;;;;;;4986427;28;20443;-70
2022/02/22 02:03:36;;;;;;;30.98;4.60;;;;;;;;;;4971804;28;20121;-70
2022/02/22 02:06:03;;;;;;;28.45;4.20;;;;;;;;;;4983141;28;20054;-70
2022/02/22 02:08:29;;;;;;;22.45;3.65;;;;;;;;;;4978422;28;20064;-70
2022/02/22 02:10:55;;;;;;;30.70;4.53;;;;;;;;;;4984678;28;20079;-70
2022/02/22 02:13:22;;;;;;;29.02;4.22;;;;;;;;;;4977047;28;20053;-70
2022/02/22 02:15:48;;;;;;;29.25;3.63;;;;;;;;;;4984549;28;20058;-70
2022/02/22 02:18:15;;;;;;;30.33;4.28;;;;;;;;;;4977623;28;20038;-70
2022/02/22 02:20:41;;;;;;;30.58;4.18;;;;;;;;;;4977164;28;20515;-70
2022/02/22 02:23:07;;;;;;;22.23;2.80;;;;;;;;;;4980653;28;20050;-70
2022/02/22 02:25:35;;;;;;;31.50;4.18;;;;;;;;;;4979280;28;20502;-70
2022/02/22 02:28:01;;;;;;;20.00;3.08;;;;;;;;;;4979833;28;20078;-70
2022/02/22 02:30:28;;;;;;;21.52;3.40;;;;;;;;;;4976187;28;20392;-71
2022/02/22 02:32:54;;;;;;;19.02;3.22;;;;;;;;;;4975855;28;20058;-70
2022/02/22 02:35:21;;;;;;;25.83;3.92;;;;;;;;;;4985401;28;20317;-70
2022/02/22 02:37:47;;;;;;;22.02;3.15;;;;;;;;;;4975845;28;20515;-70
2022/02/22 02:40:33;;;;;;;27.00;4.15;;;;;;;;;;4980007;28;20444;-70
2022/02/22 02:42:59;;;;;;;23.75;3.58;;;;;;;;;;4970666;28;20047;-70
2022/02/22 02:45:26;;;;;;;21.25;3.42;;;;;;;;;;4977485;28;20625;-70
2022/02/22 02:47:53;;;;;;;29.20;3.78;;;;;;;;;;4983826;28;20545;-70
2022/02/22 02:50:19;;;;;;;24.63;4.35;;;;;;;;;;4982548;28;20870;-70
2022/02/22 02:52:45;;;;;;;28.05;3.63;;;;;;;;;;4983668;28;20069;-70
2022/02/22 02:55:12;;;;;;;24.95;3.45;;;;;;;;;;4976105;28;20128;-70
2022/02/22 02:57:38;;;;;;;34.97;5.47;;;;;;;;;;4981286;28;20046;-70
2022/02/22 03:00:05;;;;;;;22.13;3.40;;;;;;;;;;4971525;28;20049;-70
2022/02/22 03:02:32;;;;;;;24.27;3.72;;;;;;;;;;4981587;28;20050;-70
2022/02/22 03:04:59;;;;;;;29.30;5.03;;;;;;;;;;4982365;28;20518;-70
2022/02/22 03:07:28;;;;;;;26.25;3.40;;;;;;;;;;4966942;28;20447;-70
2022/02/22 03:09:56;;;;;;;24.42;3.58;;;;;;;;;;4984757;28;20745;-70
2022/02/22 03:12:23;;;;;;;25.20;3.95;;;;;;;;;;4974254;28;20049;-70
2022/02/22 03:14:50;;;;;;;25.10;3.90;;;;;;;;;;4979010;28;20423;-70
2022/02/22 03:17:16;;;;;;;33.13;4.90;;;;;;;;;;4969088;28;20066;-70
2022/02/22 03:19:42;;;;;;;27.90;3.30;;;;;;;;;;4980101;28;20054;-70
2022/02/22 03:22:09;;;;;;;24.10;3.03;;;;;;;;;;4981450;28;20046;-70
2022/02/22 03:24:35;;;;;;;30.50;4.13;;;;;;;;;;4990194;28;20563;-70
2022/02/22 03:27:02;;;;;;;17.33;2.72;;;;;;;;;;4979247;28;20046;-70
2022/02/22 03:29:28;;;;;;;21.13;2.85;;;;;;;;;;4965922;28;20057;-70
2022/02/22 03:31:54;;;;;;;33.22;4.72;;;;;;;;;;4981449;28;20062;-70
2022/02/22 03:34:20;;;;;;;39.13;3.53;;;;;;;;;;4967731;28;20054;-70
2022/02/22 03:36:47;;;;;;;31.90;3.90;;;;;;;;;;4981930;28;20053;-70
2022/02/22 03:39:13;;;;;;;28.15;3.58;;;;;;;;;;4977545;28;20363;-70
2022/02/22 03:41:39;;;;;;;31.08;4.05;;;;;;;;;;4972507;28;20509;-70
2022/02/22 03:44:06;;;;;;;28.65;4.20;;;;;;;;;;4984317;28;20367;-70
2022/02/22 03:46:32;;;;;;;37.83;4.93;;;;;;;;;;4977206;28;20182;-70
2022/02/22 03:48:58;;;;;;;32.08;4.25;;;;;;;;;;4981427;28;20061;-70
2022/02/22 03:51:26;;;;;;;26.67;4.07;;;;;;;;;;4975517;28;20142;-70
2022/02/22 03:53:53;;;;;;;33.55;3.55;;;;;;;;;;4971469;28;20483;-70
2022/02/22 03:56:19;;;;;;;24.27;3.53;;;;;;;;;;4979108;28;20081;-70
2022/02/22 03:58:45;;;;;;;25.83;4.07;;;;;;;;;;4973415;28;20508;-70
2022/02/22 04:01:12;;;;;;;26.88;3.30;;;;;;;;;;4989073;28;20062;-70
2022/02/22 04:03:38;;;;;;;23.10;3.22;;;;;;;;;;4973443;28;20597;-70
2022/02/22 04:06:04;;;;;;;25.60;3.67;;;;;;;;;;4983443;28;20427;-70
2022/02/22 04:08:32;;;;;;;36.10;3.58;;;;;;;;;;4974790;28;20057;-70
2022/02/22 04:10:58;;;;;;;27.02;3.15;;;;;;;;;;4978132;28;20073;-70
2022/02/22 04:13:25;;;;;;;26.33;3.38;;;;;;;;;;4984219;28;20049;-70
2022/02/22 04:15:51;;;;;;;31.23;4.00;;;;;;;;;;4975625;28;20058;-69
2022/02/22 04:18:17;;;;;;;30.42;4.70;;;;;;;;;;4975757;28;20089;-70
2022/02/22 04:20:45;;;;;;;25.80;3.80;;;;;;;;;;4970483;28;20053;-70
2022/02/22 04:23:11;;;;;;;29.48;4.28;;;;;;;;;;4979832;28;20525;-70
2022/02/22 04:25:39;;;;;;;31.92;3.78;;;;;;;;;;4976394;28;20050;-70
2022/02/22 04:28:05;;;;;;;27.55;4.43;;;;;;;;;;4982226;28;20423;-70
2022/02/22 04:30:32;;;;;;;28.50;3.65;;;;;;;;;;4977906;28;20046;-69
2022/02/22 04:32:59;;;;;;;30.88;3.75;;;;;;;;;;4973411;28;20051;-70
2022/02/22 04:35:25;;;;;;;24.65;3.67;;;;;;;;;;4983778;28;20055;-70
2022/02/22 04:37:51;;;;;;;21.40;2.78;;;;;;;;;;4981753;28;20378;-70
2022/02/22 04:40:17;;;;;;;25.95;3.25;;;;;;;;;;4980175;28;20061;-70
2022/02/22 04:42:48;;;;;;;29.33;4.15;;;;;;;;;;4972568;28;20054;-70
2022/02/22 04:45:15;;;;;;;27.67;4.45;;;;;;;;;;4975614;28;20057;-70
2022/02/22 04:47:42;;;;;;;23.15;3.85;;;;;;;;;;4982583;28;20057;-70
2022/02/22 04:50:08;;;;;;;31.55;4.35;;;;;;;;;;4976717;28;20136;-69
2022/02/22 04:52:35;;;;;;;37.50;4.75;;;;;;;;;;4990245;28;20494;-70
2022/02/22 04:55:02;;;;;;;31.30;3.78;;;;;;;;;;4978593;28;20042;-70
2022/02/22 04:57:28;;;;;;;28.40;3.40;;;;;;;;;;4987826;28;20542;-70
2022/02/22 04:59:57;;;;;;;22.23;3.30;;;;;;;;;;4971425;28;20061;-69
2022/02/22 05:02:24;;;;;;;28.35;3.05;;;;;;;;;;4976222;28;20050;-69
2022/02/22 05:04:50;;;;;;;33.33;4.18;;;;;;;;;;4980040;28;20054;-69
2022/02/22 05:07:16;;;;;;;22.50;3.88;;;;;;;;;;4973314;28;20454;-69
2022/02/22 05:09:42;;;;;;;24.75;3.55;;;;;;;;;;4981008;28;20081;-69
2022/02/22 05:12:10;;;;;;;21.13;3.65;;;;;;;;;;4972553;28;20421;-69
2022/02/22 05:14:36;;;;;;;30.23;4.18;;;;;;;;;;4984748;28;20058;-70
2022/02/22 05:17:03;;;;;;;24.67;3.45;;;;;;;;;;4976494;28;20397;-70
2022/02/22 05:19:29;;;;;;;28.65;3.20;;;;;;;;;;4985930;28;20361;-70
2022/02/22 05:21:55;;;;;;;24.48;3.20;;;;;;;;;;4986289;28;20130;-69
2022/02/22 05:24:21;;;;;;;27.50;3.38;;;;;;;;;;4973872;28;20443;-69
2022/02/22 05:26:48;;;;;;;23.92;3.08;;;;;;;;;;4983070;28;20046;-69
2022/02/22 05:29:14;;;;;;;25.83;3.80;;;;;;;;;;4979065;28;20047;-69
2022/02/22 05:31:41;;;;;;;21.85;3.30;;;;;;;;;;4987581;28;20074;-69
2022/02/22 05:34:07;;;;;;;22.17;4.15;;;;;;;;;;4983081;28;21764;-69
2022/02/22 05:36:33;;;;;;;30.67;4.80;;;;;;;;;;4980416;28;20446;-70
2022/02/22 05:39:00;;;;;;;26.33;4.28;;;;;;;;;;4977777;28;20054;-71
2022/02/22 05:41:32;;;;;;;25.77;3.53;;;;;;;;;;4979297;28;20050;-69
2022/02/22 05:43:58;;;;;;;18.42;3.47;;;;;;;;;;4985782;28;20050;-70
2022/02/22 05:46:25;;;;;;;23.15;3.75;;;;;;;;;;4978616;28;20052;-69
2022/02/22 05:48:51;;;;;;;31.05;4.10;;;;;;;;;;4985700;28;20055;-69
2022/02/22 05:51:17;;;;;;;21.02;3.97;;;;;;;;;;4972716;28;20043;-69
2022/02/22 05:53:44;;;;;;;22.17;3.75;;;;;;;;;;4983280;28;20046;-70
2022/02/22 05:56:12;;;;;;;25.63;3.90;;;;;;;;;;5003256;28;20260;-69
2022/02/22 05:58:39;;;;;;;19.58;3.33;;;;;;;;;;4979300;28;20050;-69
2022/02/22 06:01:05;;;;;;;39.20;4.13;;;;;;;;;;4981531;28;20715;-69
2022/02/22 06:03:32;;;;;;;23.45;3.35;;;;;;;;;;4970357;28;20137;-69
2022/02/22 06:05:58;;;;;;;30.20;3.63;;;;;;;;;;4985394;28;20046;-69
2022/02/22 06:08:26;;;;;;;26.70;3.42;;;;;;;;;;4977522;28;20050;-69
2022/02/22 06:10:53;;;;;;;26.65;3.25;;;;;;;;;;4983989;28;20043;-69
2022/02/22 06:13:19;;;;;;;23.45;3.28;;;;;;;;;;4976002;28;20485;-69
2022/02/22 06:15:45;;;;;;;41.90;3.78;;;;;;;;;;4960704;28;20050;-69
2022/02/22 06:18:12;;;;;;;25.23;3.53;;;;;;;;;;4986428;28;20050;-69
2022/02/22 06:20:39;;;;;;;37.08;4.15;;;;;;;;;;4976176;28;20046;-70
2022/02/22 06:23:06;;;;;;;22.60;3.38;;;;;;;;;;4984712;28;20056;-69
2022/02/22 06:25:32;;;;;;;28.15;4.93;;;;;;;;;;4978505;28;20656;-70
2022/02/22 06:27:58;;;;;;;27.40;3.58;;;;;;;;;;4979827;28;20061;-69
2022/02/22 06:30:25;;;;;;;38.47;5.80;;;;;;;;;;4975720;28;20050;-69
2022/02/22 06:32:52;;;;;;;18.67;3.72;;;;;;;;;;4970624;28;20046;-69
2022/02/22 06:35:19;;;;;;;26.95;4.07;;;;;;;;;;4983384;28;20441;-69
2022/02/22 06:37:45;;;;;;;24.30;4.13;;;;;;;;;;4965085;28;20424;-69
2022/02/22 06:40:12;;;;;;;17.73;3.33;;;;;;;;;;4984175;28;20419;-69
2022/02/22 06:42:38;;;;;;;20.75;3.38;;;;;;;;;;4966066;28;20072;-69
2022/02/22 06:45:05;;;;;;;28.30;4.18;;;;;;;;;;4975269;28;20390;-69
2022/02/22 06:47:32;;;;;;;27.10;3.70;;;;;;;;;;4971921;28;20050;-69
2022/02/22 06:49:58;;;;;;;23.60;3.97;;;;;;;;;;4967066;28;20054;-69
2022/02/22 06:52:29;;;;;;;26.02;3.10;;;;;;;;;;4976131;28;20042;-69
2022/02/22 06:54:55;;;;;;;25.25;2.95;;;;;;;;;;4980475;28;20049;-69
2022/02/22 06:57:21;;;;;;;24.35;3.97;;;;;;;;;;4988096;28;20061;-69
2022/02/22 06:59:48;;;;;;;30.50;4.00;;;;;;;;;;4976132;28;20047;-69
2022/02/22 07:02:14;;;;;;;28.27;3.65;;;;;;;;;;4977979;28;20053;-69
2022/02/22 07:04:40;;;;;;;26.50;4.13;;;;;;;;;;4983739;28;20054;-69
2022/02/22 07:07:07;;;;;;;21.63;3.38;;;;;;;;;;4973910;28;20439;-69
2022/02/22 07:09:34;;;;;;;22.25;3.33;;;;;;;;;;4985749;28;20046;-69
2022/02/22 07:12:00;;;;;;;30.60;3.97;;;;;;;;;;4971746;28;20141;-70
2022/02/22 07:14:27;;;;;;;21.45;3.75;;;;;;;;;;4979995;28;20112;-69
2022/02/22 07:16:54;;;;;;;24.42;3.35;;;;;;;;;;4981053;28;20125;-69
2022/02/22 07:19:20;;;;;;;26.40;3.55;;;;;;;;;;4965179;28;20054;-69
2022/02/22 07:21:47;;;;;;;17.63;3.35;;;;;;;;;;4980355;28;20057;-69
2022/02/22 07:24:13;;;;;;;20.70;3.53;;;;;;;;;;4963751;28;20061;-69
2022/02/22 07:26:39;;;;;;;21.48;2.95;;;;;;;;;;4978285;28;20054;-69
2022/02/22 07:29:06;;;;;;;26.73;3.33;;;;;;;;;;4970855;28;20050;-69
2022/02/22 07:31:32;;;;;;;18.85;3.03;;;;;;;;;;4991369;28;20057;-69
2022/02/22 07:33:58;;;;;;;20.77;3.13;;;;;;;;;;4988071;28;20056;-70
2022/02/22 07:36:25;;;;;;;19.98;2.63;;;;;;;;;;4969311;28;20061;-69
2022/02/22 07:38:51;;;;;;;22.80;3.17;;;;;;;;;;4975539;28;20744;-69
2022/02/22 07:41:22;;;;;;;22.40;3.20;;;;;;;;;;4986767;28;20085;-69
2022/02/22 07:43:50;;;;;;;18.90;3.10;;;;;;;;;;4982049;28;20612;-69
2022/02/22 07:46:17;;;;;;;24.50;3.47;;;;;;;;;;4973302;28;20046;-70
2022/02/22 07:48:47;;;;;;;18.13;3.25;;;;;;;;;;4983318;28;20043;-69
2022/02/22 07:51:19;;;;;;;28.75;3.95;;;;;;;;;;4980183;28;20046;-70
2022/02/22 07:53:46;;;;;;;17.58;2.85;;;;;;;;;;4971731;28;20050;-69
2022/02/22 07:56:13;;;;;;;16.90;3.28;;;;;;;;;;4984032;28;20050;-69
2022/02/22 07:58:39;;;;;;;25.35;3.42;;;;;;;;;;4975230;28;20099;-69
2022/02/22 08:01:06;;;;;;;16.50;2.60;;;;;;;;;;4978456;28;20547;-69
2022/02/22 08:03:33;;;;;;;20.58;3.13;;;;;;;;;;4975799;28;20050;-69
2022/02/22 08:05:59;;;;;;;20.08;3.38;;;;;;;;;;4972093;28;20129;-69
2022/02/22 08:08:26;;;;;;;18.33;2.95;;;;;;;;;;4968852;28;20762;-69
2022/02/22 08:10:53;;;;;;;15.90;2.53;;;;;;;;;;4969780;28;20046;-69
2022/02/22 08:13:19;;;;;;;24.40;4.07;;;;;;;;;;4982496;28;20046;-70
2022/02/22 08:15:45;;;;;;;26.60;3.88;;;;;;;;;;4970333;28;20171;-69
2022/02/22 08:18:12;;;;;;;20.63;2.65;;;;;;;;;;4998459;28;20511;-69
2022/02/22 08:20:42;;;;;;;19.58;3.25;;;;;;;;;;4967388;28;20077;-69
2022/02/22 08:23:08;;;;;;;21.95;3.20;;;;;;;;;;4979596;28;20043;-70
2022/02/22 08:25:35;;;;;;;22.75;4.78;;;;;;;;;;4982977;28;20153;-71
2022/02/22 08:28:08;;;;;;;16.98;2.88;;;;;;;;;;4977288;28;20050;-70
2022/02/22 08:30:38;;;;;;;18.48;3.70;;;;;;;;;;4978907;28;20121;-69
2022/02/22 08:33:06;;;;;;;26.02;4.07;;;;;;;;;;4966141;28;20058;-69
2022/02/22 08:35:32;;;;;;;15.32;3.50;;;;;;;;;;4978102;28;20078;-70
2022/02/22 08:37:59;;;;;;;20.33;3.35;;;;;;;;;;4977171;28;20046;-70
2022/02/22 08:40:25;;;;;;;18.58;3.63;;;;;;;;;;4988823;28;20505;-69
2022/02/22 08:42:52;;;;;;;23.30;3.55;;;;;;;;;;4983253;28;20054;-69
2022/02/22 08:45:21;;;;;;;21.48;3.80;;;;;;;;;;4979264;28;20480;-70
2022/02/22 08:47:48;;;;;;;15.68;3.70;;;;;;;;;;4979351;28;20046;-70
2022/02/22 08:50:14;;;;;;;23.00;3.42;;;;;;;;;;4974793;28;20050;-70
2022/02/22 08:52:41;;;;;;;24.52;4.22;;;;;;;;;;4981660;28;20724;-70
2022/02/22 08:55:08;;;;;;;25.45;3.80;;;;;;;;;;4977848;28;20050;-70
2022/02/22 08:57:34;;;;;;;23.08;4.97;;;;;;;;;;4980337;28;20050;-69
2022/02/22 09:00:02;;;;;;;21.98;4.13;;;;;;;;;;4999261;28;20124;-69
2022/02/22 09:02:29;;;;;;;26.92;4.57;;;;;;;;;;4978191;28;20050;-70
2022/02/22 09:04:56;;;;;;;26.17;4.35;;;;;;;;;;4983620;28;20617;-69
2022/02/22 09:07:22;;;;;;;23.98;4.80;;;;;;;;;;4980656;28;20514;-70
2022/02/22 09:09:48;;;;;;;26.38;4.20;;;;;;;;;;4986404;28;20046;-70
2022/02/22 09:12:15;;;;;;;24.63;4.22;;;;;;;;;;4976135;28;20134;-70
2022/02/22 09:14:41;;;;;;;26.70;4.93;;;;;;;;;;4981408;28;20124;-70
2022/02/22 09:17:08;;;;;;;14.48;3.38;;;;;;;;;;4978982;28;20055;-70
2022/02/22 09:19:34;;;;;;;19.85;4.30;;;;;;;;;;4979582;28;20097;-69
2022/02/22 09:22:01;;;;;;;25.83;4.43;;;;;;;;;;4986907;28;20581;-70
2022/02/22 09:24:27;;;;;;;22.40;5.07;;;;;;;;;;4973337;28;20054;-69
2022/02/22 09:26:53;;;;;;;30.05;4.78;;;;;;;;;;4963578;28;20050;-71
2022/02/22 09:29:20;;;;;;;18.42;4.75;;;;;;;;;;4974107;28;20173;-70
2022/02/22 09:31:49;;;;;;;25.35;5.40;;;;;;;;;;4969976;28;20130;-69
2022/02/22 09:34:15;;;;;;;;;;;;;;;;;;4979799;28;20101;-70
2022/02/22 09:36:41;;;;;;;23.92;4.85;;;;;;;;;;4971711;28;20408;-69
2022/02/22 09:39:09;;;;;;;20.65;4.03;;;;;;;;;;4982506;28;20062;-69
2022/02/22 09:41:36;;;;;;;21.65;4.35;;;;;;;;;;4969163;28;20512;-69
2022/02/22 09:44:03;;;;;;;26.65;4.97;;;;;;;;;;4986297;28;20060;-69
2022/02/22 09:46:30;;;;;;;23.45;5.57;;;;;;;;;;4965437;28;20056;-69
2022/02/22 09:48:56;;;;;;;26.20;5.35;;;;;;;;;;4978130;28;20051;-69
2022/02/22 09:51:23;;;;;;;17.08;4.07;;;;;;;;;;4980595;28;20133;-69
2022/02/22 09:53:49;;;;;;;23.30;4.60;;;;;;;;;;4962841;28;20439;-69
2022/02/22 09:56:16;;;;;;;23.45;4.45;;;;;;;;;;4974458;28;20518;-70
2022/02/22 09:58:42;;;;;;;20.63;4.78;;;;;;;;;;4977685;28;20050;-69
2022/02/22 10:01:09;;;;;;;24.55;5.18;;;;;;;;;;4983610;28;20492;-69
2022/02/22 10:03:35;;;;;;;28.95;5.78;;;;;;;;;;4978485;28;20046;-69
2022/02/22 10:06:02;;;;;;;17.27;4.40;;;;;;;;;;4981667;28;20385;-69
2022/02/22 10:08:35;;;;;;;15.32;3.63;;;;;;;;;;4979235;28;20054;-69
2022/02/22 10:11:03;;;;;;;24.33;4.63;;;;;;;;;;4975650;28;20309;-69
2022/02/22 10:13:29;;;;;;;25.75;4.75;;;;;;;;;;4981449;28;20292;-69
2022/02/22 10:15:58;;;;;;;23.67;5.15;;;;;;;;;;4972924;28;20227;-70
2022/02/22 10:18:27;;;;;;;25.92;5.82;;;;;;;;;;4977318;28;20049;-69
2022/02/22 10:20:53;;;;;;;18.05;4.72;;;;;;;;;;4968633;28;20050;-70
2022/02/22 10:23:30;;;;;;;22.15;5.40;;;;;;;;;;4974291;28;20050;-70
2022/02/22 10:25:57;;;;;;;27.77;4.35;;;;;;;;;;4992846;28;20046;-70
2022/02/22 10:28:24;;;;;;;20.80;4.00;;;;;;;;;;4973323;28;20043;-70
2022/02/22 10:30:50;;;;;;;27.23;5.20;;;;;;;;;;4985661;28;20082;-69
2022/02/22 10:33:19;;;;;;;21.70;4.32;;;;;;;;;;4976536;28;20050;-70
2022/02/22 10:35:51;;;;;;;16.65;4.07;;;;;;;;;;4983993;28;20125;-70
2022/02/22 10:38:20;;;;;;;22.42;4.13;;;;;;;;;;4973481;28;20050;-70
2022/02/22 10:40:51;;;;;;;21.30;4.53;;;;;;;;;;5003260;28;20053;-70
2022/02/22 10:43:21;;;;;;;21.38;4.13;;;;;;;;;;4982207;28;20049;-71
2022/02/22 10:45:49;;;;;;;29.17;4.70;;;;;;;;;;4972867;28;20058;-70
2022/02/22 10:48:24;;;;;;;28.27;4.30;;;;;;;;;;4980673;28;20045;-69
2022/02/22 10:50:52;;;;;;;21.90;4.53;;;;;;;;;;4969962;28;20168;-69
2022/02/22 10:53:18;;;;;;;19.80;3.92;;;;;;;;;;4985017;28;20559;-70
2022/02/22 10:55:46;;;;;;;32.17;4.97;;;;;;;;;;4975990;28;20077;-69
2022/02/22 10:58:13;;;;;;;22.60;4.50;;;;;;;;;;4998845;28;20054;-69
2022/02/22 11:00:39;;;;;;;26.15;4.63;;;;;;;;;;4983154;28;20456;-69
2022/02/22 11:03:08;;;;;;;21.00;4.30;;;;;;;;;;4967113;28;20140;-70
2022/02/22 11:05:37;;;;;;;23.90;4.80;;;;;;;;;;4977949;28;20058;-70
2022/02/22 11:08:04;;;;;;;24.15;4.82;;;;;;;;;;4975469;28;20062;-70
2022/02/22 11:10:31;;;;;;;26.60;4.07;;;;;;;;;;4981832;28;20054;-69
2022/02/22 11:13:00;;;;;;;31.35;5.15;;;;;;;;;;4970944;28;20117;-70
2022/02/22 11:15:34;;;;;;;23.80;4.50;;;;;;;;;;4980035;28;20121;-70
2022/02/22 11:18:13;;;;;;;25.00;4.32;;;;;;;;;;4959785;28;20057;-70
2022/02/22 11:20:41;;;;;;;27.85;5.05;;;;;;;;;;4979644;28;20061;-70
2022/02/22 11:23:09;;;;;;;25.10;5.05;;;;;;;;;;4983709;28;20069;-70
2022/02/22 11:25:39;;;;;;;23.40;4.65;;;;;;;;;;4970166;28;20058;-70
2022/02/22 11:28:06;;;;;;;31.10;5.40;;;;;;;;;;4978613;28;20415;-70
2022/02/22 11:30:37;;;;;;;27.50;4.80;;;;;;;;;;4967060;28;20990;-70
2022/02/22 11:33:08;;;;;;;23.45;3.90;;;;;;;;;;4975749;28;20046;-71
2022/02/22 11:35:47;;;;;;;27.60;4.03;;;;;;;;;;4979835;28;20058;-70
2022/02/22 11:38:14;;;;;;;32.00;5.43;;;;;;;;;;4981710;28;20058;-70
2022/02/22 11:40:41;;;;;;;26.05;4.20;;;;;;;;;;4984738;28;20484;-70
2022/02/22 11:43:12;;;;;;;24.30;5.85;;;;;;;;;;4973786;28;20070;-70
2022/02/22 11:45:43;;;;;;;23.90;4.80;;;;;;;;;;4976494;28;20054;-70
2022/02/22 11:48:12;;;;;;;31.48;5.32;;;;;;;;;;4967578;28;20121;-70
2022/02/22 11:50:40;;;;;;;33.58;5.38;;;;;;;;;;4975648;28;20057;-70
2022/02/22 11:53:11;;;;;;;28.85;5.20;;;;;;;;;;4973843;28;20050;-70
2022/02/22 11:55:40;;;;;;;21.45;4.68;;;;;;;;;;4978292;28;20141;-70
2022/02/22 11:58:11;;;;;;;27.40;5.07;;;;;;;;;;4973479;28;20054;-70
2022/02/22 12:00:38;;;;;;;32.35;5.00;;;;;;;;;;4980135;28;20546;-70
2022/02/22 12:03:09;;;;;;;29.77;5.55;;;;;;;;;;4983274;28;20049;-70
2022/02/22 12:05:39;;;;;;;23.33;4.53;;;;;;;;;;4975673;28;20062;-70
2022/02/22 12:08:14;;;;;;;27.58;5.68;;;;;;;;;;4984560;28;20077;-70
2022/02/22 12:10:45;;;;;;;20.95;4.70;;;;;;;;;;4974085;28;20046;-69
2022/02/22 12:13:13;;;;;;;30.92;5.88;;;;;;;;;;4982285;28;20057;-69
2022/02/22 12:15:40;;;;;;;33.20;6.07;;;;;;;;;;4980603;28;20596;-70
2022/02/22 12:18:17;;;;;;;31.40;5.80;;;;;;;;;;4990742;28;20046;-70
2022/02/22 12:20:46;;;;;;;32.85;5.93;;;;;;;;;;4989224;28;20054;-70
2022/02/22 12:23:15;;;;;;;28.75;6.07;;;;;;;;;;4973379;28;20057;-70
2022/02/22 12:25:42;;;;;;;29.25;5.75;;;;;;;;;;4970358;28;20050;-70
2022/02/22 12:28:08;;;;;;;24.13;6.05;;;;;;;;;;4965793;28;20058;-70
2022/02/22 12:30:36;;;;;;;25.83;5.97;;;;;;;;;;4984766;28;20058;-70
2022/02/22 12:33:02;;;;;;;37.33;7.00;;;;;;;;;;4977506;28;20405;-70
2022/02/22 12:35:35;;;;;;;22.83;5.57;;;;;;;;;;4978645;28;20477;-70
2022/02/22 12:38:14;;;;;;;27.38;6.90;;;;;;;;;;4986966;28;20054;-70
2022/02/22 12:40:41;;;;;;;26.38;6.38;;;;;;;;;;4980966;28;20054;-71
2022/02/22 12:43:27;;;;;;;30.77;6.68;;;;;;;;;;4987422;28;20419;-71
2022/02/22 12:45:54;;;;;;;24.67;6.82;;;;;;;;;;4975415;28;20057;-70
2022/02/22 12:48:21;;;;;;;31.85;6.50;;;;;;;;;;4980961;28;20055;-70
2022/02/22 12:50:57;;;;;;;28.88;6.95;;;;;;;;;;4972141;28;20046;-70
2022/02/22 12:53:31;;;;;;;24.40;7.00;;;;;;;;;;4972386;28;20059;-70
2022/02/22 12:55:57;;;;;;;34.25;8.15;;;;;;;;;;4972394;28;20047;-70
2022/02/22 12:58:31;;;;;;;30.70;8.20;;;;;;;;;;4981549;28;20523;-70
2022/02/22 13:01:11;;;;;;;23.70;6.32;;;;;;;;;;4977150;28;20051;-70
2022/02/22 13:03:41;;;;;;;31.27;8.77;;;;;;;;;;4969836;28;20061;-70
2022/02/22 13:06:11;;;;;;;26.58;6.15;;;;;;;;;;4973260;28;20073;-70
2022/02/22 13:08:38;;;;;;;25.05;6.75;;;;;;;;;;4962028;28;20042;-70
2022/02/22 13:11:05;;;;;;;22.70;7.53;;;;;;;;;;4979336;28;20058;-70
2022/02/22 13:13:31;;;;;;;26.55;7.35;;;;;;;;;;4976482;28;20059;-70
2022/02/22 13:16:14;;;;;;;24.45;6.65;;;;;;;;;;4974648;28;20054;-70
2022/02/22 13:18:54;;;;;;;25.65;6.28;;;;;;;;;;4972743;28;20046;-70
2022/02/22 13:21:21;;;;;;;30.95;7.35;;;;;;;;;;4975007;28;20059;-70
2022/02/22 13:23:47;;;;;;;25.02;7.50;;;;;;;;;;4978951;28;20054;-70
2022/02/22 13:26:14;;;;;;;30.90;6.78;;;;;;;;;;4974608;28;20058;-70
2022/02/22 13:28:44;;;;;;;31.13;7.25;;;;;;;;;;4984109;28;20053;-71
2022/02/22 13:31:30;;;;;;;31.05;7.55;;;;;;;;;;4964488;28;20101;-70
2022/02/22 13:33:58;;;;;;;31.75;8.60;;;;;;;;;;4981280;28;20062;-71
2022/02/22 13:36:24;;;;;;;28.87;7.60;;;;;;;;;;4974106;28;20080;-70
2022/02/22 13:38:54;;;;;;;28.17;8.10;;;;;;;;;;5000482;28;20050;-70
2022/02/22 13:41:28;;;;;;;27.50;8.25;;;;;;;;;;4989201;28;20062;-70
2022/02/22 13:43:54;;;;;;;27.95;7.82;;;;;;;;;;4972419;28;20065;-70
2022/02/22 13:46:28;;;;;;;22.45;7.13;;;;;;;;;;4977629;28;20054;-70
2022/02/22 13:48:59;;;;;;;30.95;8.07;;;;;;;;;;4978817;28;20051;-70
2022/02/22 13:51:34;;;;;;;32.50;7.82;;;;;;;;;;4989559;28;20045;-70
2022/02/22 13:54:00;;;;;;;30.38;8.85;;;;;;;;;;4978942;28;20056;-70
2022/02/22 13:56:26;;;;;;;29.17;7.65;;;;;;;;;;4978630;28;20043;-70
2022/02/22 13:59:03;;;;;;;23.02;7.40;;;;;;;;;;4973427;28;20054;-71
2022/02/22 14:01:29;;;;;;;26.05;9.30;;;;;;;;;;4984483;28;20051;-71
2022/02/22 14:03:55;;;;;;;24.80;8.10;;;;;;;;;;4984089;28;20133;-70
2022/02/22 14:06:22;;;;;;;22.63;7.60;;;;;;;;;;4976542;28;20091;-71
2022/02/22 14:08:50;;;;;;;24.08;7.90;;;;;;;;;;4981614;28;20054;-70
2022/02/22 14:11:16;;;;;;;21.60;7.57;;;;;;;;;;4967631;28;20046;-70
2022/02/22 14:13:43;;;;;;;21.08;7.15;;;;;;;;;;4972765;28;20070;-70
2022/02/22 14:16:21;;;;;;;21.20;7.28;;;;;;;;;;4973040;28;20184;-71
2022/02/22 14:18:48;;;;;;;16.00;6.25;;;;;;;;;;4983045;28;20057;-71
2022/02/22 14:21:17;;;;;;;24.48;7.97;;;;;;;;;;4972099;28;20061;-70
2022/02/22 14:23:44;;;;;;;23.70;7.88;;;;;;;;;;4980875;28;20061;-70
2022/02/22 14:26:10;;;;;;;24.92;6.50;;;;;;;;;;4978858;28;20053;-71
2022/02/22 14:28:36;;;;;;;18.27;6.05;;;;;;;;;;4973515;28;20057;-71
2022/02/22 14:31:03;;;;;;;24.08;5.57;;;;;;;;;;4984978;28;20046;-71
2022/02/22 14:33:30;;;;;;;22.20;6.65;;;;;;;;;;4977503;28;20463;-71